Time;durP1;ratioP1;P1;durP2;ratioP2;P2;SDS_P1;SDS_P2;PMS_P1;PMS_P2;Temp;Humidity;BMP_temperature;BMP_pressure;BME280_temperature;BME280_humidity;BME280_pressure;Samples;Min_cycle;Max_cycle;Signal;HPM_P1;HPM_P2
2023/03/10 00:00:38;;;;;;;48.63;20.85;;;;;;;;;;4995917;28;20046;-82
2023/03/10 00:03:23;;;;;;;48.97;22.52;;;;;;;;;;4996310;28;20039;-82
2023/03/10 00:06:10;;;;;;;51.60;25.27;;;;;;;;;;4996011;28;20046;-79
2023/03/10 00:08:56;;;;;;;45.70;23.17;;;;;;;;;;4996218;28;20038;-82
2023/03/10 00:11:41;;;;;;;47.90;22.38;;;;;;;;;;4996050;28;20046;-82
2023/03/10 00:14:45;;;;;;;52.03;24.52;;;;;;;;;;4995934;28;20142;-83
2023/03/10 00:17:30;;;;;;;58.92;25.00;;;;;;;;;;4995952;28;20034;-82
2023/03/10 00:20:16;;;;;;;63.28;28.02;;;;;;;;;;4995799;28;20046;-82
2023/03/10 00:23:01;;;;;;;63.55;26.85;;;;;;;;;;4981700;28;20524;-82
2023/03/10 00:25:58;;;;;;;43.72;21.50;;;;;;;;;;4981348;28;20051;-82
2023/03/10 00:28:43;;;;;;;36.10;16.25;;;;;;;;;;4995730;28;20039;-82
2023/03/10 00:31:30;;;;;;;29.23;12.95;;;;;;;;;;4995807;28;20039;-82
2023/03/10 00:34:16;;;;;;;14.80;8.82;;;;;;;;;;4995663;28;20058;-82
2023/03/10 00:37:02;;;;;;;13.77;6.63;;;;;;;;;;4974182;28;20054;-82
2023/03/10 00:39:52;;;;;;;15.15;7.18;;;;;;;;;;4995751;28;20042;-82
2023/03/10 00:42:37;;;;;;;14.15;8.32;;;;;;;;;;4987417;28;20050;-82
2023/03/10 00:45:23;;;;;;;19.38;9.15;;;;;;;;;;4995009;28;20039;-82
2023/03/10 00:48:08;;;;;;;15.23;9.05;;;;;;;;;;4987334;28;20038;-82
2023/03/10 00:50:54;;;;;;;18.95;9.27;;;;;;;;;;4986849;28;20042;-82
2023/03/10 00:53:40;;;;;;;18.35;8.93;;;;;;;;;;4986639;28;20050;-82
2023/03/10 00:56:26;;;;;;;18.73;8.98;;;;;;;;;;4986760;28;20050;-81
2023/03/10 00:59:11;;;;;;;16.48;8.48;;;;;;;;;;4987052;28;20046;-82
2023/03/10 01:01:56;;;;;;;17.65;9.70;;;;;;;;;;4987232;28;20043;-82
2023/03/10 01:04:42;;;;;;;18.02;10.07;;;;;;;;;;4985602;28;20524;-82
2023/03/10 01:07:27;;;;;;;19.20;8.85;;;;;;;;;;4986777;28;20400;-82
2023/03/10 01:10:13;;;;;;;20.23;10.70;;;;;;;;;;4973033;28;20034;-82
2023/03/10 01:12:59;;;;;;;30.30;14.90;;;;;;;;;;4986984;28;20512;-82
2023/03/10 01:15:46;;;;;;;15.73;7.85;;;;;;;;;;4986831;28;20050;-82
2023/03/10 01:18:32;;;;;;;14.35;8.60;;;;;;;;;;4994723;28;20069;-82
2023/03/10 01:21:21;;;;;;;19.50;9.07;;;;;;;;;;4986730;28;20408;-81
2023/03/10 01:24:12;;;;;;;17.58;8.85;;;;;;;;;;4986825;28;20042;-82
2023/03/10 01:26:57;;;;;;;18.15;9.40;;;;;;;;;;4986600;28;20042;-82
2023/03/10 01:29:43;;;;;;;18.80;9.00;;;;;;;;;;4985885;28;20042;-82
2023/03/10 01:32:28;;;;;;;13.95;8.05;;;;;;;;;;4994095;28;20046;-82
2023/03/10 01:35:14;;;;;;;16.48;9.98;;;;;;;;;;4994531;28;20050;-82
2023/03/10 01:38:00;;;;;;;18.00;9.48;;;;;;;;;;4986519;28;20042;-82
2023/03/10 01:40:49;;;;;;;18.70;9.48;;;;;;;;;;4994113;28;20050;-82
2023/03/10 01:43:39;;;;;;;24.58;14.15;;;;;;;;;;4985188;28;20492;-82
2023/03/10 01:46:34;;;;;;;23.58;12.07;;;;;;;;;;4985991;28;20038;-81
2023/03/10 01:49:51;;;;;;;22.40;12.02;;;;;;;;;;4986150;28;20042;-80
2023/03/10 01:52:40;;;;;;;21.42;10.57;;;;;;;;;;4985782;28;20460;-81
2023/03/10 01:55:34;;;;;;;27.42;12.73;;;;;;;;;;4986141;28;20042;-82
2023/03/10 01:58:23;;;;;;;22.08;11.55;;;;;;;;;;4986093;28;20038;-81
2023/03/10 02:01:10;;;;;;;22.27;12.52;;;;;;;;;;4986028;28;20058;-81
2023/03/10 02:04:15;;;;;;;23.13;11.70;;;;;;;;;;4985103;28;20038;-81
2023/03/10 02:07:03;;;;;;;22.45;12.40;;;;;;;;;;4985675;28;20062;-81
2023/03/10 02:09:51;;;;;;;24.00;13.07;;;;;;;;;;4994085;28;20055;-81
2023/03/10 02:12:38;;;;;;;25.33;12.02;;;;;;;;;;4985440;28;20038;-81
2023/03/10 02:15:23;;;;;;;28.35;12.77;;;;;;;;;;4985496;28;20051;-81
2023/03/10 02:18:11;;;;;;;27.30;13.60;;;;;;;;;;4985804;28;20038;-81
2023/03/10 02:21:27;;;;;;;23.58;12.65;;;;;;;;;;4985735;28;20050;-81
2023/03/10 02:24:32;;;;;;;17.00;8.63;;;;;;;;;;4985598;28;20058;-81
2023/03/10 02:27:23;;;;;;;12.13;6.75;;;;;;;;;;4993750;28;20042;-81
2023/03/10 02:30:12;;;;;;;15.27;6.80;;;;;;;;;;4993839;28;20055;-81
2023/03/10 02:33:01;;;;;;;8.57;5.55;;;;;;;;;;4993334;28;20054;-81
2023/03/10 02:35:46;;;;;;;9.48;4.95;;;;;;;;;;4984984;28;20038;-81
2023/03/10 02:38:36;;;;;;;7.22;4.40;;;;;;;;;;4984902;28;20038;-81
2023/03/10 02:41:27;;;;;;;12.23;3.95;;;;;;;;;;4984155;28;20504;-81
2023/03/10 02:44:17;;;;;;;8.32;3.70;;;;;;;;;;4982800;28;20450;-81
2023/03/10 02:47:03;;;;;;;10.82;4.75;;;;;;;;;;4985395;28;20054;-81
2023/03/10 02:49:48;;;;;;;40.95;13.30;;;;;;;;;;4985492;28;20054;-81
2023/03/10 02:52:42;;;;;;;28.23;11.20;;;;;;;;;;4985337;28;20051;-81
2023/03/10 02:55:27;;;;;;;22.20;9.30;;;;;;;;;;4985308;28;20038;-81
2023/03/10 02:58:13;;;;;;;33.97;12.65;;;;;;;;;;4985424;28;20403;-81
2023/03/10 03:00:59;;;;;;;26.80;11.15;;;;;;;;;;4985002;28;20047;-81
2023/03/10 03:03:44;;;;;;;22.08;9.73;;;;;;;;;;4971962;28;20400;-81
2023/03/10 03:06:30;;;;;;;10.20;5.50;;;;;;;;;;4985161;28;20047;-81
2023/03/10 03:09:15;;;;;;;9.35;5.55;;;;;;;;;;4985170;28;20042;-82
2023/03/10 03:12:00;;;;;;;12.90;5.47;;;;;;;;;;4985090;28;20038;-81
2023/03/10 03:14:47;;;;;;;11.30;6.00;;;;;;;;;;4985319;28;20046;-81
2023/03/10 03:17:33;;;;;;;10.60;5.95;;;;;;;;;;4993323;28;20046;-81
2023/03/10 03:20:20;;;;;;;18.60;7.40;;;;;;;;;;4985437;28;20042;-81
2023/03/10 03:23:08;;;;;;;18.23;8.43;;;;;;;;;;4984923;28;20054;-81
2023/03/10 03:25:53;;;;;;;18.60;8.40;;;;;;;;;;4985164;28;20050;-81
2023/03/10 03:28:39;;;;;;;19.02;9.07;;;;;;;;;;4987679;28;20042;-81
2023/03/10 03:31:25;;;;;;;26.90;9.98;;;;;;;;;;4988488;28;20042;-81
2023/03/10 03:34:19;;;;;;;32.88;13.48;;;;;;;;;;4988884;28;20050;-81
2023/03/10 03:37:06;;;;;;;27.13;11.70;;;;;;;;;;4988400;28;20050;-86
2023/03/10 03:39:55;;;;;;;28.75;11.35;;;;;;;;;;4975819;28;20050;-85
2023/03/10 03:42:42;;;;;;;19.17;8.73;;;;;;;;;;4993192;28;20050;-87
2023/03/10 03:45:30;;;;;;;14.55;8.60;;;;;;;;;;5004209;28;20046;-87
2023/03/10 03:48:15;;;;;;;13.52;8.52;;;;;;;;;;4981676;28;20050;-87
2023/03/10 03:51:01;;;;;;;15.70;8.57;;;;;;;;;;4994528;28;20424;-86
2023/03/10 03:53:53;;;;;;;23.13;10.20;;;;;;;;;;4996220;28;20043;-87
2023/03/10 03:56:39;;;;;;;25.30;10.73;;;;;;;;;;4995769;28;20043;-87
2023/03/10 03:59:25;;;;;;;21.77;10.70;;;;;;;;;;4996854;28;20442;-87
2023/03/10 04:02:10;;;;;;;21.45;10.02;;;;;;;;;;4996479;28;20050;-87
2023/03/10 04:04:56;;;;;;;17.65;8.77;;;;;;;;;;4995646;28;20054;-87
2023/03/10 04:07:42;;;;;;;16.85;9.15;;;;;;;;;;5003641;28;20050;-87
2023/03/10 04:10:29;;;;;;;19.63;8.20;;;;;;;;;;4996334;28;20042;-88
2023/03/10 04:13:16;;;;;;;20.60;7.78;;;;;;;;;;5003918;28;20047;-87
2023/03/10 04:16:01;;;;;;;15.80;8.52;;;;;;;;;;4994607;28;20043;-88
2023/03/10 04:18:51;;;;;;;12.60;7.47;;;;;;;;;;4980514;28;20050;-87
2023/03/10 04:21:38;;;;;;;20.52;8.20;;;;;;;;;;4987120;28;20054;-87
2023/03/10 04:24:24;;;;;;;18.30;8.57;;;;;;;;;;4979610;28;20046;-87
2023/03/10 04:27:10;;;;;;;17.83;10.25;;;;;;;;;;4993106;28;20042;-87
2023/03/10 04:29:56;;;;;;;19.20;10.15;;;;;;;;;;4991923;28;20042;-88
2023/03/10 04:32:42;;;;;;;19.55;9.85;;;;;;;;;;4991815;28;20043;-87
2023/03/10 04:35:30;;;;;;;18.40;9.98;;;;;;;;;;4989566;28;20488;-88
2023/03/10 04:38:16;;;;;;;19.63;9.50;;;;;;;;;;4989563;28;20049;-87
2023/03/10 04:41:04;;;;;;;20.52;10.68;;;;;;;;;;4991037;28;20412;-87
2023/03/10 04:43:53;;;;;;;22.70;10.68;;;;;;;;;;4988136;28;20054;-88
2023/03/10 04:46:38;;;;;;;25.40;13.48;;;;;;;;;;4990906;28;20481;-88
2023/03/10 04:49:24;;;;;;;34.80;15.43;;;;;;;;;;4989983;28;20046;-87
2023/03/10 04:52:09;;;;;;;34.08;15.90;;;;;;;;;;4988861;28;20050;-84
2023/03/10 04:54:55;;;;;;;32.13;15.07;;;;;;;;;;4989630;28;20491;-87
2023/03/10 04:57:40;;;;;;;35.10;14.93;;;;;;;;;;4997742;28;20034;-87
2023/03/10 05:00:25;;;;;;;46.97;17.00;;;;;;;;;;4990997;28;20046;-87
2023/03/10 05:03:12;;;;;;;29.60;13.63;;;;;;;;;;4992903;28;20050;-87
2023/03/10 05:05:56;;;;;;;22.35;11.30;;;;;;;;;;4989909;28;20042;-87
2023/03/10 05:08:42;;;;;;;27.30;11.75;;;;;;;;;;4989348;28;20046;-87
2023/03/10 05:11:29;;;;;;;24.77;14.05;;;;;;;;;;4990098;28;20042;-86
2023/03/10 05:14:16;;;;;;;29.23;13.65;;;;;;;;;;4977862;28;20050;-86
2023/03/10 05:17:01;;;;;;;29.63;13.18;;;;;;;;;;4984361;28;20054;-87
2023/03/10 05:19:47;;;;;;;30.35;13.13;;;;;;;;;;4994301;28;20042;-81
2023/03/10 05:22:32;;;;;;;122.20;56.60;;;;;;;;;;4987795;28;20046;-87
2023/03/10 05:25:18;;;;;;;93.95;38.08;;;;;;;;;;4988083;28;20050;-87
2023/03/10 05:28:04;;;;;;;38.88;20.63;;;;;;;;;;4987884;28;20047;-87
2023/03/10 05:30:49;;;;;;;34.25;15.73;;;;;;;;;;4988201;28;20484;-88
2023/03/10 05:33:35;;;;;;;29.05;14.85;;;;;;;;;;4987721;28;20050;-87
2023/03/10 05:36:22;;;;;;;36.20;16.92;;;;;;;;;;4988101;28;20038;-87
2023/03/10 05:39:08;;;;;;;39.25;17.98;;;;;;;;;;4988007;28;20054;-88
2023/03/10 05:41:58;;;;;;;49.63;19.25;;;;;;;;;;4975448;28;20058;-88
2023/03/10 05:44:47;;;;;;;59.63;23.77;;;;;;;;;;4970356;28;20042;-88
2023/03/10 05:47:33;;;;;;;52.28;23.52;;;;;;;;;;4973380;28;20058;-86
2023/03/10 05:50:20;;;;;;;75.20;29.63;;;;;;;;;;4986582;28;20050;-87
2023/03/10 05:53:05;;;;;;;72.80;29.83;;;;;;;;;;4986592;28;20412;-87
2023/03/10 05:55:52;;;;;;;104.75;40.10;;;;;;;;;;4987217;28;20050;-85
2023/03/10 05:58:38;;;;;;;68.80;29.63;;;;;;;;;;4987032;28;20396;-82
2023/03/10 06:01:25;;;;;;;68.50;32.17;;;;;;;;;;4977515;28;20050;-86
2023/03/10 06:04:11;;;;;;;70.40;35.72;;;;;;;;;;4996330;28;20489;-85
2023/03/10 06:06:59;;;;;;;76.55;34.80;;;;;;;;;;4993976;28;20038;-85
2023/03/10 06:09:44;;;;;;;59.10;28.73;;;;;;;;;;4993994;28;20050;-83
2023/03/10 06:12:31;;;;;;;43.67;19.52;;;;;;;;;;4979597;28;20042;-81
2023/03/10 06:15:16;;;;;;;40.65;20.45;;;;;;;;;;4994120;28;20485;-81
2023/03/10 06:18:01;;;;;;;44.30;22.00;;;;;;;;;;4993512;28;20047;-81
2023/03/10 06:20:48;;;;;;;36.40;20.30;;;;;;;;;;4993716;28;20042;-82
2023/03/10 06:23:33;;;;;;;45.65;22.67;;;;;;;;;;4992779;28;20050;-82
2023/03/10 06:26:19;;;;;;;49.33;23.58;;;;;;;;;;4993753;28;20043;-81
2023/03/10 06:29:05;;;;;;;39.72;22.17;;;;;;;;;;4993802;28;20046;-81
2023/03/10 06:31:51;;;;;;;34.38;19.73;;;;;;;;;;4993505;28;20039;-81
2023/03/10 06:34:36;;;;;;;37.38;18.55;;;;;;;;;;4993884;28;20046;-81
2023/03/10 06:37:22;;;;;;;45.22;23.88;;;;;;;;;;4993657;28;20042;-81
2023/03/10 06:40:09;;;;;;;48.92;26.42;;;;;;;;;;4991298;28;20485;-81
2023/03/10 06:42:56;;;;;;;57.05;30.63;;;;;;;;;;4993463;28;20484;-81
2023/03/10 06:45:43;;;;;;;58.40;30.33;;;;;;;;;;4993297;28;20050;-81
2023/03/10 06:48:29;;;;;;;70.28;40.78;;;;;;;;;;4993754;28;20054;-81
2023/03/10 06:51:18;;;;;;;39.63;22.42;;;;;;;;;;4982031;28;20054;-80
2023/03/10 06:54:02;;;;;;;43.00;21.73;;;;;;;;;;4997653;28;20046;-81
2023/03/10 06:56:49;;;;;;;40.08;23.23;;;;;;;;;;4997900;28;20042;-81
2023/03/10 06:59:33;;;;;;;39.70;21.65;;;;;;;;;;4998224;28;20444;-81
2023/03/10 07:02:19;;;;;;;44.58;23.45;;;;;;;;;;4999565;28;20042;-81
2023/03/10 07:05:06;;;;;;;45.90;23.33;;;;;;;;;;4987481;28;20050;-82
2023/03/10 07:07:52;;;;;;;42.30;23.05;;;;;;;;;;5000847;28;20042;-82
2023/03/10 07:10:37;;;;;;;49.85;26.23;;;;;;;;;;4997672;28;20047;-82
2023/03/10 07:13:22;;;;;;;37.80;22.23;;;;;;;;;;4982574;28;20046;-82
2023/03/10 07:16:08;;;;;;;45.08;23.75;;;;;;;;;;4996961;28;20042;-82
2023/03/10 07:18:54;;;;;;;45.45;24.35;;;;;;;;;;4987089;28;20054;-81
2023/03/10 07:21:39;;;;;;;32.40;20.10;;;;;;;;;;4997430;28;20396;-82
2023/03/10 07:24:25;;;;;;;37.63;20.73;;;;;;;;;;4997188;28;20047;-86
2023/03/10 07:27:11;;;;;;;38.97;19.83;;;;;;;;;;4988572;28;20042;-83
2023/03/10 07:30:06;;;;;;;33.72;17.70;;;;;;;;;;4996772;28;20042;-82
2023/03/10 07:32:51;;;;;;;40.00;19.42;;;;;;;;;;4974886;28;20404;-82
2023/03/10 07:35:37;;;;;;;35.75;20.40;;;;;;;;;;4996484;28;20050;-83
2023/03/10 07:38:23;;;;;;;38.03;21.02;;;;;;;;;;4996616;28;20512;-83
2023/03/10 07:41:17;;;;;;;34.85;19.73;;;;;;;;;;4982400;28;20050;-83
2023/03/10 07:44:03;;;;;;;;;;;;;;;;;;4996405;28;20042;-82
2023/03/10 07:46:48;;;;;;;;;;;;;;;;;;4989255;28;19918;-82
2023/03/10 07:49:33;;;;;;;60.53;26.48;;;;;;;;;;4981477;28;20280;-82
2023/03/10 07:52:19;;;;;;;68.13;28.13;;;;;;;;;;4996450;28;20038;-83
2023/03/10 07:55:05;;;;;;;90.90;39.10;;;;;;;;;;4981065;28;20432;-83
2023/03/10 07:57:50;;;;;;;76.50;38.25;;;;;;;;;;4993717;28;20492;-83
2023/03/10 08:00:35;;;;;;;66.93;34.72;;;;;;;;;;4995628;28;20050;-83
2023/03/10 08:03:21;;;;;;;111.85;42.40;;;;;;;;;;4987796;28;20042;-83
2023/03/10 08:06:06;;;;;;;84.15;37.47;;;;;;;;;;4996274;28;20046;-83
2023/03/10 08:08:53;;;;;;;53.08;29.80;;;;;;;;;;4996265;28;20389;-83
2023/03/10 08:11:39;;;;;;;58.80;32.72;;;;;;;;;;4995887;28;20464;-82
2023/03/10 08:14:27;;;;;;;101.28;42.55;;;;;;;;;;4995462;28;20492;-83
2023/03/10 08:17:12;;;;;;;88.28;38.95;;;;;;;;;;4981086;28;20050;-83
2023/03/10 08:19:58;;;;;;;80.95;37.53;;;;;;;;;;4995864;28;20042;-83
2023/03/10 08:22:44;;;;;;;74.40;38.25;;;;;;;;;;4995813;28;20049;-83
2023/03/10 08:25:30;;;;;;;74.10;37.83;;;;;;;;;;4995719;28;20038;-82
2023/03/10 08:28:16;;;;;;;79.32;40.35;;;;;;;;;;4995908;28;20042;-82
2023/03/10 08:31:16;;;;;;;72.85;37.17;;;;;;;;;;4995691;28;20042;-82
2023/03/10 08:34:01;;;;;;;66.00;38.67;;;;;;;;;;4995072;28;20046;-82
2023/03/10 08:36:47;;;;;;;57.80;29.15;;;;;;;;;;4995746;28;20039;-82
2023/03/10 08:39:32;;;;;;;62.75;33.45;;;;;;;;;;4987335;28;20046;-82
2023/03/10 08:42:17;;;;;;;66.57;34.83;;;;;;;;;;4987498;28;20054;-82
2023/03/10 08:45:04;;;;;;;62.13;33.03;;;;;;;;;;4995210;28;20035;-82
2023/03/10 08:47:49;;;;;;;70.57;35.80;;;;;;;;;;4980750;28;20042;-82
2023/03/10 08:50:35;;;;;;;78.50;41.65;;;;;;;;;;4987539;28;20042;-83
2023/03/10 08:53:20;;;;;;;531.97;252.95;;;;;;;;;;4995158;28;20046;-82
2023/03/10 08:56:06;;;;;;;241.52;98.68;;;;;;;;;;4995029;28;20488;-81
2023/03/10 08:58:59;;;;;;;75.53;41.65;;;;;;;;;;4995086;28;20373;-81
2023/03/10 09:01:45;;;;;;;79.03;41.25;;;;;;;;;;4986870;28;20050;-81
2023/03/10 09:04:29;;;;;;;93.50;47.03;;;;;;;;;;4987490;28;20034;-81
2023/03/10 09:07:15;;;;;;;100.47;52.17;;;;;;;;;;4995396;28;20480;-82
2023/03/10 09:10:00;;;;;;;171.63;89.38;;;;;;;;;;4994692;28;20377;-81
2023/03/10 09:12:46;;;;;;;129.27;65.05;;;;;;;;;;4979427;28;20042;-82
2023/03/10 09:15:33;;;;;;;126.68;69.88;;;;;;;;;;4994736;28;20054;-81
2023/03/10 09:18:19;;;;;;;136.20;71.22;;;;;;;;;;4986635;28;20500;-81
2023/03/10 09:21:05;;;;;;;129.52;69.07;;;;;;;;;;4994874;28;20050;-82
2023/03/10 09:23:51;;;;;;;147.45;77.50;;;;;;;;;;4994554;28;20050;-81
2023/03/10 09:26:36;;;;;;;134.52;73.55;;;;;;;;;;4986024;28;20038;-81
2023/03/10 09:29:22;;;;;;;126.22;69.07;;;;;;;;;;4986790;28;20042;-81
2023/03/10 09:32:07;;;;;;;129.73;76.03;;;;;;;;;;4994560;28;20397;-80
2023/03/10 09:34:53;;;;;;;109.63;63.80;;;;;;;;;;4994142;28;20046;-80
2023/03/10 09:37:39;;;;;;;93.35;51.38;;;;;;;;;;4994574;28;20059;-80
2023/03/10 09:40:25;;;;;;;147.55;79.50;;;;;;;;;;4994463;28;20492;-81
2023/03/10 09:43:16;;;;;;;106.35;59.95;;;;;;;;;;4994743;28;20042;-80
2023/03/10 09:46:19;;;;;;;95.25;53.42;;;;;;;;;;4986195;28;20385;-80
2023/03/10 09:49:17;;;;;;;77.18;45.67;;;;;;;;;;4994347;28;20505;-80
2023/03/10 09:52:17;;;;;;;102.05;51.85;;;;;;;;;;4994160;28;20042;-79
2023/03/10 09:55:18;;;;;;;101.18;51.35;;;;;;;;;;4986257;28;20038;-80
2023/03/10 09:58:03;;;;;;;101.18;48.50;;;;;;;;;;4993951;28;20062;-80
2023/03/10 10:00:48;;;;;;;86.63;46.47;;;;;;;;;;4994182;28;20050;-80
2023/03/10 10:03:38;;;;;;;74.90;41.15;;;;;;;;;;4994266;28;20050;-79
2023/03/10 10:06:26;;;;;;;84.55;43.53;;;;;;;;;;4979444;28;20046;-78
2023/03/10 10:09:23;;;;;;;85.72;47.92;;;;;;;;;;4994163;28;20051;-79
2023/03/10 10:12:13;;;;;;;106.35;58.40;;;;;;;;;;4993499;28;20046;-80
2023/03/10 10:15:17;;;;;;;108.07;52.47;;;;;;;;;;4993962;28;20046;-80
2023/03/10 10:18:30;;;;;;;100.82;55.75;;;;;;;;;;4993798;28;20046;-78
2023/03/10 10:21:31;;;;;;;100.25;52.10;;;;;;;;;;4994056;28;20042;-79
2023/03/10 10:24:18;;;;;;;132.50;64.72;;;;;;;;;;4993469;28;20046;-79
2023/03/10 10:27:03;;;;;;;98.70;54.72;;;;;;;;;;4994270;28;20038;-79
2023/03/10 10:29:49;;;;;;;135.18;72.28;;;;;;;;;;4993521;28;20050;-79
2023/03/10 10:32:55;;;;;;;113.13;59.97;;;;;;;;;;4993583;28;20054;-80
2023/03/10 10:35:59;;;;;;;111.72;62.33;;;;;;;;;;4979339;28;20043;-80
2023/03/10 10:38:49;;;;;;;57.45;35.28;;;;;;;;;;4993544;28;20105;-80
2023/03/10 10:41:35;;;;;;;38.88;24.23;;;;;;;;;;4993600;28;20054;-79
2023/03/10 10:44:20;;;;;;;28.80;19.15;;;;;;;;;;4992988;28;20046;-79
2023/03/10 10:47:27;;;;;;;21.90;13.80;;;;;;;;;;4993467;28;20046;-80
2023/03/10 10:50:22;;;;;;;26.23;15.93;;;;;;;;;;4993226;28;20501;-79
2023/03/10 10:53:20;;;;;;;29.05;17.42;;;;;;;;;;4993275;28;20488;-79
2023/03/10 10:56:11;;;;;;;26.45;16.45;;;;;;;;;;4993430;28;20050;-80
2023/03/10 10:59:19;;;;;;;39.95;21.35;;;;;;;;;;4993631;28;20404;-79
2023/03/10 11:02:21;;;;;;;37.90;23.13;;;;;;;;;;4984891;28;20142;-80
2023/03/10 11:05:19;;;;;;;36.88;23.35;;;;;;;;;;4993680;28;20043;-79
2023/03/10 11:08:39;;;;;;;65.35;35.03;;;;;;;;;;4993374;28;20050;-79
2023/03/10 11:11:34;;;;;;;35.47;23.25;;;;;;;;;;4954924;28;20062;-79
2023/03/10 11:14:34;;;;;;;38.05;22.98;;;;;;;;;;4992603;28;20043;-79
2023/03/10 11:17:42;;;;;;;41.50;24.38;;;;;;;;;;4992867;28;20050;-80
2023/03/10 11:20:45;;;;;;;32.58;20.17;;;;;;;;;;4984740;28;20050;-80
2023/03/10 11:23:55;;;;;;;37.60;21.95;;;;;;;;;;4978848;28;20400;-80
2023/03/10 11:27:13;;;;;;;32.50;19.08;;;;;;;;;;4992706;28;20054;-80
2023/03/10 11:30:16;;;;;;;28.23;18.13;;;;;;;;;;4993337;28;20053;-80
2023/03/10 11:33:02;;;;;;;16.73;10.30;;;;;;;;;;4992614;28;20046;-80
2023/03/10 11:36:21;;;;;;;25.90;15.18;;;;;;;;;;4992783;28;20050;-80
2023/03/10 11:39:38;;;;;;;25.88;15.63;;;;;;;;;;4992932;28;20050;-80
2023/03/10 11:42:38;;;;;;;18.60;11.90;;;;;;;;;;4992908;28;20054;-80
2023/03/10 11:45:35;;;;;;;16.30;9.82;;;;;;;;;;4992886;28;20050;-80
2023/03/10 11:48:21;;;;;;;12.32;7.95;;;;;;;;;;4978826;28;20046;-80
2023/03/10 11:51:27;;;;;;;12.15;6.82;;;;;;;;;;4996416;28;20050;-81
2023/03/10 11:54:23;;;;;;;12.73;6.88;;;;;;;;;;4996218;28;20486;-81
2023/03/10 11:57:17;;;;;;;12.15;6.90;;;;;;;;;;4996397;28;20404;-80
2023/03/10 12:00:14;;;;;;;12.82;7.72;;;;;;;;;;4996595;28;20042;-80
2023/03/10 12:03:13;;;;;;;13.25;7.25;;;;;;;;;;4987848;28;20054;-80
2023/03/10 12:05:59;;;;;;;10.98;6.85;;;;;;;;;;4996449;28;20046;-80
2023/03/10 12:08:45;;;;;;;10.90;5.82;;;;;;;;;;4981285;28;20420;-81
2023/03/10 12:11:34;;;;;;;12.68;7.57;;;;;;;;;;4996291;28;20050;-80
2023/03/10 12:14:20;;;;;;;14.32;8.90;;;;;;;;;;4995952;28;20038;-80
2023/03/10 12:17:06;;;;;;;20.83;12.88;;;;;;;;;;4995820;28;20038;-85
2023/03/10 12:20:27;;;;;;;22.02;11.23;;;;;;;;;;4996442;28;20038;-85
2023/03/10 12:23:24;;;;;;;15.95;10.60;;;;;;;;;;4989125;28;20050;-83
2023/03/10 12:26:09;;;;;;;27.70;14.98;;;;;;;;;;4988716;28;20042;-83
2023/03/10 12:29:19;;;;;;;14.38;10.02;;;;;;;;;;4987458;28;20050;-84
2023/03/10 12:32:30;;;;;;;19.90;11.18;;;;;;;;;;4996293;28;20050;-83
2023/03/10 12:35:47;;;;;;;12.30;8.82;;;;;;;;;;4981381;28;20404;-83
2023/03/10 12:39:02;;;;;;;22.02;12.65;;;;;;;;;;4975402;28;20401;-85
2023/03/10 12:42:03;;;;;;;38.25;21.65;;;;;;;;;;4975788;28;20051;-87
2023/03/10 12:45:04;;;;;;;22.48;14.40;;;;;;;;;;4995292;28;20050;-86
2023/03/10 12:48:11;;;;;;;21.42;12.07;;;;;;;;;;4987986;28;20042;-85
2023/03/10 12:51:03;;;;;;;17.02;11.00;;;;;;;;;;4994565;28;20476;-85
2023/03/10 12:54:12;;;;;;;12.73;8.45;;;;;;;;;;4986894;28;20492;-87
2023/03/10 12:57:29;;;;;;;16.05;12.10;;;;;;;;;;4995826;28;20109;-86
2023/03/10 13:00:26;;;;;;;20.98;6.00;;;;;;;;;;4994862;28;20042;-85
2023/03/10 13:03:25;;;;;;;23.48;14.15;;;;;;;;;;4980738;28;20047;-86
2023/03/10 13:06:09;;;;;;;24.90;15.60;;;;;;;;;;4980151;28;20397;-87
2023/03/10 13:09:14;;;;;;;21.88;15.75;;;;;;;;;;4995644;28;20038;-86
2023/03/10 13:12:08;;;;;;;25.03;16.37;;;;;;;;;;4994942;28;20493;-87
2023/03/10 13:14:56;;;;;;;21.17;15.07;;;;;;;;;;4980339;28;20034;-85
2023/03/10 13:17:41;;;;;;;24.23;13.75;;;;;;;;;;4994822;28;20050;-87
2023/03/10 13:20:26;;;;;;;21.02;15.15;;;;;;;;;;4980267;28;20050;-87
2023/03/10 13:23:28;;;;;;;14.95;10.43;;;;;;;;;;4995061;28;20051;-87
2023/03/10 13:26:15;;;;;;;17.63;9.50;;;;;;;;;;4994679;28;20461;-87
2023/03/10 13:29:19;;;;;;;20.45;12.18;;;;;;;;;;4980641;28;20050;-86
2023/03/10 13:32:18;;;;;;;23.40;15.73;;;;;;;;;;4982115;28;20054;-85
2023/03/10 13:35:34;;;;;;;12.97;8.20;;;;;;;;;;4994494;28;20062;-85
2023/03/10 13:38:23;;;;;;;28.85;16.58;;;;;;;;;;4987925;28;20047;-86
2023/03/10 13:41:09;;;;;;;26.98;16.77;;;;;;;;;;4979873;28;20392;-86
2023/03/10 13:43:55;;;;;;;22.67;14.85;;;;;;;;;;4984555;28;20047;-85
2023/03/10 13:46:47;;;;;;;16.33;12.02;;;;;;;;;;4966702;28;20050;-84
2023/03/10 13:49:34;;;;;;;19.58;12.65;;;;;;;;;;4980548;28;20046;-85
2023/03/10 13:52:23;;;;;;;17.77;11.50;;;;;;;;;;4971830;28;20046;-85
2023/03/10 13:55:16;;;;;;;19.77;12.45;;;;;;;;;;4979441;28;20043;-85
2023/03/10 13:58:02;;;;;;;20.58;11.85;;;;;;;;;;4979693;28;20396;-86
2023/03/10 14:00:49;;;;;;;21.10;13.00;;;;;;;;;;4972077;28;20500;-86
2023/03/10 14:03:34;;;;;;;16.90;11.25;;;;;;;;;;4985897;28;20054;-86
2023/03/10 14:06:21;;;;;;;19.70;11.30;;;;;;;;;;4979072;28;20042;-85
2023/03/10 14:09:15;;;;;;;13.98;9.82;;;;;;;;;;4979472;28;20046;-85
2023/03/10 14:12:00;;;;;;;15.43;9.73;;;;;;;;;;4993550;28;20042;-86
2023/03/10 14:14:45;;;;;;;13.77;9.23;;;;;;;;;;4979022;28;20050;-87
2023/03/10 14:17:37;;;;;;;19.20;11.02;;;;;;;;;;4972609;28;20046;-86
2023/03/10 14:20:39;;;;;;;17.73;10.50;;;;;;;;;;4978382;28;20400;-88
2023/03/10 14:23:35;;;;;;;16.80;10.93;;;;;;;;;;4979182;28;20416;-87
2023/03/10 14:26:23;;;;;;;15.68;10.90;;;;;;;;;;4979000;28;20038;-87
2023/03/10 14:29:18;;;;;;;20.27;12.63;;;;;;;;;;4993811;28;20054;-87
2023/03/10 14:32:04;;;;;;;27.93;15.57;;;;;;;;;;4985794;28;20042;-88
2023/03/10 14:34:49;;;;;;;19.65;11.57;;;;;;;;;;4976853;28;20051;-88
2023/03/10 14:38:36;;;;;;;;;;;;;;;;;;;;;
2023/03/10 14:41:24;;;;;;;26.92;16.13;;;;;;;;;;4985541;28;20046;-87
2023/03/10 14:44:09;;;;;;;22.77;14.20;;;;;;;;;;4969459;28;20046;-85
2023/03/10 14:46:55;;;;;;;24.08;13.70;;;;;;;;;;4985658;28;20046;-86
2023/03/10 14:49:41;;;;;;;27.70;18.73;;;;;;;;;;4977407;28;20038;-85
2023/03/10 14:52:29;;;;;;;28.30;17.85;;;;;;;;;;4972288;28;20050;-85
2023/03/10 14:55:14;;;;;;;27.80;17.88;;;;;;;;;;4993912;28;20054;-86
2023/03/10 14:58:02;;;;;;;36.20;22.55;;;;;;;;;;4994314;28;20656;-86
2023/03/10 15:00:48;;;;;;;27.55;17.52;;;;;;;;;;4979696;28;20046;-85
2023/03/10 15:03:33;;;;;;;35.28;21.48;;;;;;;;;;4993512;28;20050;-86
2023/03/10 15:06:19;;;;;;;27.42;18.40;;;;;;;;;;4993878;28;20050;-86
2023/03/10 15:09:04;;;;;;;34.10;23.65;;;;;;;;;;4985173;28;20050;-86
2023/03/10 15:11:50;;;;;;;29.45;18.85;;;;;;;;;;4993743;28;20042;-86
2023/03/10 15:14:35;;;;;;;60.78;33.00;;;;;;;;;;4985264;28;20042;-86
2023/03/10 15:17:21;;;;;;;38.15;25.38;;;;;;;;;;4986543;28;20054;-86
2023/03/10 15:20:19;;;;;;;40.38;26.52;;;;;;;;;;4995905;28;20488;-85
2023/03/10 15:23:05;;;;;;;110.93;58.88;;;;;;;;;;4996326;28;20054;-86
2023/03/10 15:25:52;;;;;;;373.92;216.55;;;;;;;;;;4977644;28;20046;-85
2023/03/10 15:28:38;;;;;;;693.15;444.15;;;;;;;;;;4999362;28;20046;-85
2023/03/10 15:31:23;;;;;;;468.73;276.98;;;;;;;;;;4997726;28;20039;-86
2023/03/10 15:34:09;;;;;;;83.85;49.90;;;;;;;;;;4989109;28;20496;-86
2023/03/10 15:37:01;;;;;;;93.82;61.80;;;;;;;;;;4997779;28;20416;-86
2023/03/10 15:39:46;;;;;;;161.65;113.60;;;;;;;;;;4977646;28;20054;-84
2023/03/10 15:42:31;;;;;;;115.07;81.90;;;;;;;;;;4999393;28;20366;-86
2023/03/10 15:45:17;;;;;;;172.20;112.45;;;;;;;;;;4983996;28;20042;-84
2023/03/10 15:48:02;;;;;;;59.05;37.85;;;;;;;;;;4996895;28;20046;-84
2023/03/10 15:50:48;;;;;;;237.88;116.03;;;;;;;;;;4997742;28;20038;-85
2023/03/10 15:53:34;;;;;;;134.90;68.53;;;;;;;;;;4997744;28;20050;-85
2023/03/10 15:56:20;;;;;;;95.72;51.67;;;;;;;;;;4996537;28;20050;-84
2023/03/10 15:59:07;;;;;;;120.15;67.60;;;;;;;;;;4981619;28;20042;-84
2023/03/10 16:01:54;;;;;;;149.63;83.97;;;;;;;;;;4996284;28;20050;-85
2023/03/10 16:04:43;;;;;;;60.30;36.72;;;;;;;;;;4995196;28;20042;-85
2023/03/10 16:07:30;;;;;;;235.25;122.13;;;;;;;;;;4987783;28;20054;-85
2023/03/10 16:10:17;;;;;;;256.17;133.07;;;;;;;;;;4996062;28;20046;-85
2023/03/10 16:13:03;;;;;;;213.43;111.20;;;;;;;;;;4997254;28;20046;-85
2023/03/10 16:15:48;;;;;;;275.42;145.43;;;;;;;;;;4996675;28;20050;-84
2023/03/10 16:18:34;;;;;;;226.45;129.07;;;;;;;;;;4996995;28;20484;-86
2023/03/10 16:21:20;;;;;;;91.65;50.53;;;;;;;;;;4982930;28;20047;-85
2023/03/10 16:24:05;;;;;;;208.00;111.60;;;;;;;;;;4996661;28;20416;-85
2023/03/10 16:26:50;;;;;;;60.17;35.20;;;;;;;;;;4998047;28;20050;-86
2023/03/10 16:29:38;;;;;;;68.38;39.45;;;;;;;;;;4996573;28;20050;-86